Time;durP1;ratioP1;P1;durP2;ratioP2;P2;SDS_P1;SDS_P2;PMS_P1;PMS_P2;Temp;Humidity;BMP_temperature;BMP_pressure;BME280_temperature;BME280_humidity;BME280_pressure;Samples;Min_cycle;Max_cycle;Signal;HPM_P1;HPM_P2
2021/07/19 00:01:26;;;;;;;;;7.50;6.75;;;;;;;;5010746;28;45600;-78
2021/07/19 00:03:51;;;;;;;;;9.25;7.25;;;;;;;;5010707;28;45539;-78
2021/07/19 00:06:16;;;;;;;;;9.00;7.67;;;;;;;;5011146;28;45546;-80
2021/07/19 00:08:42;;;;;;;;;7.50;5.75;;;;;;;;5012072;28;46055;-79
2021/07/19 00:11:07;;;;;;;;;6.67;5.67;;;;;;;;5014022;28;46218;-80
2021/07/19 00:13:32;;;;;;;;;6.00;6.00;;;;;;;;5009769;28;45371;-80
2021/07/19 00:15:58;;;;;;;;;6.75;5.75;;;;;;;;5009991;28;45521;-78
2021/07/19 00:18:23;;;;;;;;;7.00;6.25;;;;;;;;5007400;28;45546;-79
2021/07/19 00:20:49;;;;;;;;;7.50;6.50;;;;;;;;5012184;28;45403;-79
2021/07/19 00:23:14;;;;;;;;;6.33;6.33;;;;;;;;5014018;28;45553;-79
2021/07/19 00:25:39;;;;;;;;;7.00;6.00;;;;;;;;4990477;28;45647;-79
2021/07/19 00:28:05;;;;;;;;;7.00;5.50;;;;;;;;5010744;28;45558;-78
2021/07/19 00:30:32;;;;;;;;;7.00;7.00;;;;;;;;5010095;28;46077;-78
2021/07/19 00:32:57;;;;;;;;;6.00;6.00;;;;;;;;5010748;28;45531;-79
2021/07/19 00:35:22;;;;;;;;;7.50;7.00;;;;;;;;4993808;28;45274;-78
2021/07/19 00:37:48;;;;;;;;;6.00;6.00;;;;;;;;5010353;28;45660;-79
2021/07/19 00:40:15;;;;;;;;;7.25;5.25;;;;;;;;5010765;28;45718;-79
2021/07/19 00:42:43;;;;;;;;;10.50;7.25;;;;;;;;4994006;28;45824;-79
2021/07/19 00:45:10;;;;;;;;;11.50;8.00;;;;;;;;5010599;28;45588;-79
2021/07/19 00:47:35;;;;;;;;;8.25;6.50;;;;;;;;5007363;28;45586;-79
2021/07/19 00:50:01;;;;;;;;;8.00;6.00;;;;;;;;5012245;28;45391;-78
2021/07/19 00:52:26;;;;;;;;;5.25;5.25;;;;;;;;5011916;28;45518;-79
2021/07/19 00:54:52;;;;;;;;;7.00;7.00;;;;;;;;4987518;28;45350;-79
2021/07/19 00:57:18;;;;;;;;;9.50;7.25;;;;;;;;5007460;28;45346;-79
2021/07/19 00:59:43;;;;;;;;;10.25;8.00;;;;;;;;5009786;28;45511;-80
2021/07/19 01:02:09;;;;;;;;;8.25;7.00;;;;;;;;5012381;28;45780;-78
2021/07/19 01:04:35;;;;;;;;;7.75;7.00;;;;;;;;5011001;28;45355;-78
2021/07/19 01:07:02;;;;;;;;;7.50;6.75;;;;;;;;5010318;28;45606;-79
2021/07/19 01:09:28;;;;;;;;;9.50;7.50;;;;;;;;5010565;28;46309;-79
2021/07/19 01:11:57;;;;;;;;;7.75;6.75;;;;;;;;5010126;28;45613;-79
2021/07/19 01:14:22;;;;;;;;;6.75;6.00;;;;;;;;5012063;28;45394;-79
2021/07/19 01:16:48;;;;;;;;;7.00;6.75;;;;;;;;5009978;28;45231;-78
2021/07/19 01:19:13;;;;;;;;;7.00;5.25;;;;;;;;5006168;28;47987;-79
2021/07/19 01:21:42;;;;;;;;;8.75;7.25;;;;;;;;5010061;28;45527;-79
2021/07/19 01:24:20;;;;;;;;;7.25;6.75;;;;;;;;5010287;28;45556;-79
2021/07/19 01:27:12;;;;;;;;;8.00;6.25;;;;;;;;4992234;28;45303;-79
2021/07/19 01:29:38;;;;;;;;;6.50;6.50;;;;;;;;5012873;28;46274;-79
2021/07/19 01:32:05;;;;;;;;;7.75;7.00;;;;;;;;5015774;28;45555;-78
2021/07/19 01:34:31;;;;;;;;;10.00;7.00;;;;;;;;5012286;28;45366;-79
2021/07/19 01:36:58;;;;;;;;;10.50;7.25;;;;;;;;5013427;28;46232;-80
2021/07/19 01:39:24;;;;;;;;;7.50;6.00;;;;;;;;5012644;28;45574;-79
2021/07/19 01:41:51;;;;;;;;;8.50;7.00;;;;;;;;5012788;28;45922;-79
2021/07/19 01:44:17;;;;;;;;;9.25;8.00;;;;;;;;5016519;28;45510;-80
2021/07/19 01:46:43;;;;;;;;;6.50;5.50;;;;;;;;5013245;28;45502;-79
2021/07/19 01:49:09;;;;;;;;;7.50;6.00;;;;;;;;5013460;28;45476;-78
2021/07/19 01:51:35;;;;;;;;;9.75;8.25;;;;;;;;5013162;28;45506;-79
2021/07/19 01:54:01;;;;;;;;;9.00;9.00;;;;;;;;5011811;28;45341;-79
2021/07/19 01:56:27;;;;;;;;;8.00;8.00;;;;;;;;5014278;28;45333;-78
2021/07/19 01:58:57;;;;;;;;;12.00;8.00;;;;;;;;5012722;28;46277;-78
2021/07/19 02:01:23;;;;;;;;;7.00;7.00;;;;;;;;5012168;28;48743;-80
2021/07/19 02:03:49;;;;;;;;;7.25;7.25;;;;;;;;5013272;28;45498;-79
2021/07/19 02:06:14;;;;;;;;;10.75;8.00;;;;;;;;5012862;28;45462;-79
2021/07/19 02:08:41;;;;;;;;;8.00;6.50;;;;;;;;4994995;28;48370;-79
2021/07/19 02:11:07;;;;;;;;;9.75;8.00;;;;;;;;5015089;28;45793;-78
2021/07/19 02:13:34;;;;;;;;;8.50;8.00;;;;;;;;5012385;28;45258;-79
2021/07/19 02:16:00;;;;;;;;;8.75;8.25;;;;;;;;4993975;28;45462;-79
2021/07/19 02:18:27;;;;;;;;;7.50;6.00;;;;;;;;5010794;28;45453;-79
2021/07/19 02:20:54;;;;;;;;;8.50;8.50;;;;;;;;5012429;28;45780;-79
2021/07/19 02:23:19;;;;;;;;;8.75;7.25;;;;;;;;5014620;28;45534;-80
2021/07/19 02:25:45;;;;;;;;;10.00;7.50;;;;;;;;5014421;28;45330;-79
2021/07/19 02:28:13;;;;;;;;;9.50;7.75;;;;;;;;4993727;28;47584;-80
2021/07/19 02:30:42;;;;;;;;;9.25;9.25;;;;;;;;4994260;28;45523;-79
2021/07/19 02:33:10;;;;;;;;;7.50;6.25;;;;;;;;5011551;28;48552;-79
2021/07/19 02:35:35;;;;;;;;;9.75;9.00;;;;;;;;5012494;28;45519;-79
2021/07/19 02:38:03;;;;;;;;;8.25;7.50;;;;;;;;5012819;28;46059;-78
2021/07/19 02:40:29;;;;;;;;;9.25;8.50;;;;;;;;5012531;28;48592;-79
2021/07/19 02:42:59;;;;;;;;;9.00;9.00;;;;;;;;4993483;28;45657;-79
2021/07/19 02:45:26;;;;;;;;;10.00;8.75;;;;;;;;5012375;28;45519;-78
2021/07/19 02:47:51;;;;;;;;;14.50;9.25;;;;;;;;5012533;28;45566;-79
2021/07/19 02:50:19;;;;;;;;;10.00;9.50;;;;;;;;5014989;28;45452;-79
2021/07/19 02:52:45;;;;;;;;;15.75;12.00;;;;;;;;5011124;28;45512;-79
2021/07/19 02:55:11;;;;;;;;;9.75;9.75;;;;;;;;5010104;28;45583;-80
2021/07/19 02:57:37;;;;;;;;;11.75;10.00;;;;;;;;5011816;28;45626;-79
2021/07/19 03:00:10;;;;;;;;;15.50;12.00;;;;;;;;4991582;28;45755;-78
2021/07/19 03:02:41;;;;;;;;;10.00;9.75;;;;;;;;5012244;28;45530;-79
2021/07/19 03:05:07;;;;;;;;;13.50;11.00;;;;;;;;4996987;28;45586;-79
2021/07/19 03:07:33;;;;;;;;;11.75;10.00;;;;;;;;5011247;28;45415;-79
2021/07/19 03:10:00;;;;;;;;;12.50;11.50;;;;;;;;5011454;28;45540;-79
2021/07/19 03:12:26;;;;;;;;;12.50;12.00;;;;;;;;5002742;28;45409;-79
2021/07/19 03:14:53;;;;;;;;;12.00;9.50;;;;;;;;5012136;28;45563;-79
2021/07/19 03:17:19;;;;;;;;;9.00;9.00;;;;;;;;5014610;28;46229;-78
2021/07/19 03:19:50;;;;;;;;;11.25;11.25;;;;;;;;4994331;28;45908;-78
2021/07/19 03:22:16;;;;;;;;;12.00;12.00;;;;;;;;5011763;28;45374;-80
2021/07/19 03:24:44;;;;;;;;;11.00;10.00;;;;;;;;5012051;28;45530;-80
2021/07/19 03:27:09;;;;;;;;;17.75;10.00;;;;;;;;4992791;28;48882;-79
2021/07/19 03:29:35;;;;;;;;;14.00;9.67;;;;;;;;5021476;28;45474;-80
2021/07/19 03:32:01;;;;;;;;;15.50;11.25;;;;;;;;5014339;28;45567;-79
2021/07/19 03:34:27;;;;;;;;;11.25;8.75;;;;;;;;5011500;28;45475;-80
2021/07/19 03:36:53;;;;;;;;;10.25;9.50;;;;;;;;5010799;28;45486;-80
2021/07/19 03:39:19;;;;;;;;;14.25;11.25;;;;;;;;5011671;28;45429;-79
2021/07/19 03:41:44;;;;;;;;;11.00;9.00;;;;;;;;5011631;28;45634;-79
2021/07/19 03:44:11;;;;;;;;;14.75;9.00;;;;;;;;5014721;28;45473;-80
2021/07/19 03:46:37;;;;;;;;;9.50;9.00;;;;;;;;5010877;28;45474;-80
2021/07/19 03:49:02;;;;;;;;;11.50;10.75;;;;;;;;4991932;28;46095;-79
2021/07/19 03:51:29;;;;;;;;;11.50;8.00;;;;;;;;5008164;28;45510;-79
2021/07/19 03:53:55;;;;;;;;;9.50;8.50;;;;;;;;5010905;28;45313;-79
2021/07/19 03:56:20;;;;;;;;;8.75;7.00;;;;;;;;5013766;28;45747;-80
2021/07/19 03:58:46;;;;;;;;;9.50;8.25;;;;;;;;5011886;28;45503;-79
2021/07/19 04:01:12;;;;;;;;;10.50;9.25;;;;;;;;4991772;28;45517;-78
2021/07/19 04:03:54;;;;;;;;;8.25;8.00;;;;;;;;5010784;28;45396;-79
2021/07/19 04:06:20;;;;;;;;;9.75;9.00;;;;;;;;5010753;28;46583;-79
2021/07/19 04:08:47;;;;;;;;;10.75;10.00;;;;;;;;4993007;28;45830;-79
2021/07/19 04:11:14;;;;;;;;;12.25;8.25;;;;;;;;5014050;28;45313;-79
2021/07/19 04:13:40;;;;;;;;;8.75;8.50;;;;;;;;4994557;28;45588;-79
2021/07/19 04:16:06;;;;;;;;;12.25;9.25;;;;;;;;5011352;28;46476;-79
2021/07/19 04:18:32;;;;;;;;;9.00;7.75;;;;;;;;5009790;28;45987;-80
2021/07/19 04:20:57;;;;;;;;;9.75;9.75;;;;;;;;5011274;28;45550;-80
2021/07/19 04:23:23;;;;;;;;;9.00;9.00;;;;;;;;5012336;28;45596;-79
2021/07/19 04:25:48;;;;;;;;;9.00;9.00;;;;;;;;5011793;28;45528;-79
2021/07/19 04:28:14;;;;;;;;;11.00;9.00;;;;;;;;4993763;28;45444;-79
2021/07/19 04:30:40;;;;;;;;;8.50;8.50;;;;;;;;5009361;28;45549;-79
2021/07/19 04:33:05;;;;;;;;;10.25;9.25;;;;;;;;5010657;28;45606;-79
2021/07/19 04:35:31;;;;;;;;;10.50;9.75;;;;;;;;5010733;28;46112;-79
2021/07/19 04:37:56;;;;;;;;;9.50;9.50;;;;;;;;5010870;28;45531;-79
2021/07/19 04:40:22;;;;;;;;;11.75;8.75;;;;;;;;5010333;28;45411;-79
2021/07/19 04:42:48;;;;;;;;;10.75;9.75;;;;;;;;5009766;28;45406;-78
2021/07/19 04:45:14;;;;;;;;;13.25;10.25;;;;;;;;5010844;28;46120;-78
2021/07/19 04:47:39;;;;;;;;;9.50;9.00;;;;;;;;5009087;28;45623;-78
2021/07/19 04:50:05;;;;;;;;;13.75;9.25;;;;;;;;5011742;28;45631;-78
2021/07/19 04:52:31;;;;;;;;;11.25;10.00;;;;;;;;5006997;28;45866;-77
2021/07/19 04:54:57;;;;;;;;;10.75;10.00;;;;;;;;5009800;28;46330;-78
2021/07/19 04:57:24;;;;;;;;;14.25;11.00;;;;;;;;5009927;28;45446;-77
2021/07/19 04:59:50;;;;;;;;;14.50;10.25;;;;;;;;5010516;28;45576;-79
2021/07/19 05:02:20;;;;;;;;;10.00;9.25;;;;;;;;5011954;28;45414;-78
2021/07/19 05:04:47;;;;;;;;;10.50;9.25;;;;;;;;5014662;28;45735;-78
2021/07/19 05:07:15;;;;;;;;;12.25;11.00;;;;;;;;5014009;28;45817;-78
2021/07/19 05:09:41;;;;;;;;;13.75;9.50;;;;;;;;5014363;28;45570;-79
2021/07/19 05:12:10;;;;;;;;;11.25;8.00;;;;;;;;4995224;28;45623;-78
2021/07/19 05:14:36;;;;;;;;;12.25;9.50;;;;;;;;5014085;28;46219;-78
2021/07/19 05:17:02;;;;;;;;;12.00;10.25;;;;;;;;5016180;28;45432;-78
2021/07/19 05:19:27;;;;;;;;;11.50;11.50;;;;;;;;5014225;28;45707;-77
2021/07/19 05:21:52;;;;;;;;;10.00;9.00;;;;;;;;5013288;28;45404;-78
2021/07/19 05:24:28;;;;;;;;;11.00;10.00;;;;;;;;5014288;28;45506;-79
2021/07/19 05:26:53;;;;;;;;;10.50;9.50;;;;;;;;5012324;28;45849;-81
2021/07/19 05:29:18;;;;;;;;;12.67;8.00;;;;;;;;5016178;28;45849;-78
2021/07/19 05:31:43;;;;;;;;;11.33;10.67;;;;;;;;5012925;28;45411;-78
2021/07/19 05:34:08;;;;;;;;;8.33;8.33;;;;;;;;5013335;28;45468;-78
2021/07/19 05:36:34;;;;;;;;;10.33;9.67;;;;;;;;4994484;28;45560;-78
2021/07/19 05:38:59;;;;;;;;;9.33;9.33;;;;;;;;5013300;28;45462;-78
2021/07/19 05:41:24;;;;;;;;;12.33;9.33;;;;;;;;5014305;28;45476;-79
2021/07/19 05:43:49;;;;;;;;;12.00;11.00;;;;;;;;5014078;28;45411;-79
2021/07/19 05:46:15;;;;;;;;;8.33;8.00;;;;;;;;5012922;28;45561;-78
2021/07/19 05:48:40;;;;;;;;;10.67;9.00;;;;;;;;4997690;28;45448;-78
2021/07/19 05:51:05;;;;;;;;;12.33;10.33;;;;;;;;5013500;28;45484;-79
2021/07/19 05:53:30;;;;;;;;;11.00;9.00;;;;;;;;5014504;28;46034;-78
2021/07/19 05:55:55;;;;;;;;;11.33;10.00;;;;;;;;5013289;28;45672;-80
2021/07/19 05:58:21;;;;;;;;;9.67;7.67;;;;;;;;5012184;28;45566;-80
2021/07/19 06:00:46;;;;;;;;;12.25;10.00;;;;;;;;5013371;28;45506;-80
2021/07/19 06:03:11;;;;;;;;;12.00;10.33;;;;;;;;4996915;28;47099;-80
2021/07/19 06:05:37;;;;;;;;;9.00;9.00;;;;;;;;5012687;28;45230;-80
2021/07/19 06:08:05;;;;;;;;;13.75;11.50;;;;;;;;5015060;28;45320;-80
2021/07/19 06:10:31;;;;;;;;;9.75;9.50;;;;;;;;5011781;28;45807;-80
2021/07/19 06:12:56;;;;;;;;;11.00;8.75;;;;;;;;5012629;28;45994;-79
2021/07/19 06:15:21;;;;;;;;;14.67;10.00;;;;;;;;5012637;28;45507;-80
2021/07/19 06:17:47;;;;;;;;;8.75;8.75;;;;;;;;5012307;28;45558;-81
2021/07/19 06:20:14;;;;;;;;;11.25;10.25;;;;;;;;5014933;28;45647;-80
2021/07/19 06:22:40;;;;;;;;;10.00;10.00;;;;;;;;4996751;28;47606;-79
2021/07/19 06:25:06;;;;;;;;;13.50;8.75;;;;;;;;5012289;28;45443;-79
2021/07/19 06:27:31;;;;;;;;;14.75;13.00;;;;;;;;5012626;28;45506;-79
2021/07/19 06:29:57;;;;;;;;;10.75;10.00;;;;;;;;5012034;28;45479;-79
2021/07/19 06:32:22;;;;;;;;;11.33;9.33;;;;;;;;5013623;28;45266;-81
2021/07/19 06:34:47;;;;;;;;;13.33;12.00;;;;;;;;5002761;28;46446;-79
2021/07/19 06:37:12;;;;;;;;;8.50;8.50;;;;;;;;5010792;28;45284;-80
2021/07/19 06:39:38;;;;;;;;;11.00;9.00;;;;;;;;5012213;28;45517;-81
2021/07/19 06:42:03;;;;;;;;;11.33;11.00;;;;;;;;4996682;28;47271;-80
2021/07/19 06:44:28;;;;;;;;;12.75;11.50;;;;;;;;5013369;28;45460;-79
2021/07/19 06:46:56;;;;;;;;;12.00;10.67;;;;;;;;5013673;28;45628;-80
2021/07/19 06:49:22;;;;;;;;;10.25;10.25;;;;;;;;5012134;28;48876;-80
2021/07/19 06:51:47;;;;;;;;;11.25;8.75;;;;;;;;5011428;28;46547;-80
2021/07/19 06:54:12;;;;;;;;;12.67;10.67;;;;;;;;5011812;28;45518;-80
2021/07/19 06:56:38;;;;;;;;;11.50;10.50;;;;;;;;5011631;28;45668;-80
2021/07/19 06:59:03;;;;;;;;;10.50;10.50;;;;;;;;4995584;28;45487;-80
2021/07/19 07:01:28;;;;;;;;;14.33;11.33;;;;;;;;4995213;28;46974;-84
2021/07/19 07:03:53;;;;;;;;;14.67;11.00;;;;;;;;5012239;28;45569;-84
2021/07/19 07:06:18;;;;;;;;;15.00;10.67;;;;;;;;5012056;28;45524;-84
2021/07/19 07:08:44;;;;;;;;;12.00;9.67;;;;;;;;5012856;28;45629;-85
2021/07/19 07:11:09;;;;;;;;;15.67;11.67;;;;;;;;5014438;28;46105;-85
2021/07/19 07:13:34;;;;;;;;;12.67;9.67;;;;;;;;4988709;28;45443;-85
2021/07/19 07:15:59;;;;;;;;;12.00;10.33;;;;;;;;5012159;28;45392;-84
2021/07/19 07:18:24;;;;;;;;;12.67;10.67;;;;;;;;5010881;28;45593;-85
2021/07/19 07:20:50;;;;;;;;;11.00;9.00;;;;;;;;5010699;28;46394;-84
2021/07/19 07:23:15;;;;;;;;;17.67;11.67;;;;;;;;5010602;28;45462;-85
2021/07/19 07:25:40;;;;;;;;;11.00;9.00;;;;;;;;5011465;28;45439;-87
2021/07/19 07:28:05;;;;;;;;;13.50;10.75;;;;;;;;4988033;28;45399;-86
2021/07/19 07:30:30;;;;;;;;;12.33;9.00;;;;;;;;5002321;28;46196;-85
2021/07/19 07:32:56;;;;;;;;;12.75;10.25;;;;;;;;4994420;28;45626;-85
2021/07/19 07:35:21;;;;;;;;;9.33;8.33;;;;;;;;5014084;28;45470;-85
2021/07/19 07:37:47;;;;;;;;;15.00;12.00;;;;;;;;5009826;28;45458;-84
2021/07/19 07:40:13;;;;;;;;;18.75;11.00;;;;;;;;5011532;28;46499;-84
2021/07/19 07:42:38;;;;;;;;;10.75;9.50;;;;;;;;4992984;28;45852;-84
2021/07/19 07:45:05;;;;;;;;;15.33;11.33;;;;;;;;5008549;28;45408;-85
2021/07/19 07:47:30;;;;;;;;;14.00;10.50;;;;;;;;5011587;28;45405;-83
2021/07/19 07:49:55;;;;;;;;;12.00;12.00;;;;;;;;4994217;28;46238;-85
2021/07/19 07:52:20;;;;;;;;;10.33;10.33;;;;;;;;5011722;28;45487;-85
2021/07/19 07:54:46;;;;;;;;;10.75;9.25;;;;;;;;5012162;28;45793;-85
2021/07/19 07:57:12;;;;;;;;;11.00;10.00;;;;;;;;5002549;28;46033;-85
2021/07/19 07:59:37;;;;;;;;;12.75;12.75;;;;;;;;4988984;28;46220;-85
2021/07/19 08:02:03;;;;;;;;;12.25;9.75;;;;;;;;5012451;28;45415;-85
2021/07/19 08:04:28;;;;;;;;;11.00;9.25;;;;;;;;4981289;28;45821;-85
2021/07/19 08:06:55;;;;;;;;;9.67;9.00;;;;;;;;4994031;28;45696;-84
2021/07/19 08:09:20;;;;;;;;;14.50;8.00;;;;;;;;4996400;28;46548;-86
2021/07/19 08:11:45;;;;;;;;;11.00;9.00;;;;;;;;4985015;28;45599;-84
2021/07/19 08:14:10;;;;;;;;;9.33;8.33;;;;;;;;5012264;28;45431;-84
2021/07/19 08:16:36;;;;;;;;;10.33;10.33;;;;;;;;5011006;28;45336;-84
2021/07/19 08:19:03;;;;;;;;;10.00;8.50;;;;;;;;5006096;28;46274;-83
2021/07/19 08:21:28;;;;;;;;;11.75;7.00;;;;;;;;4987444;28;45436;-85
2021/07/19 08:23:54;;;;;;;;;9.67;7.33;;;;;;;;5008983;28;45615;-85
2021/07/19 08:26:19;;;;;;;;;8.00;7.67;;;;;;;;5009896;28;45595;-83
2021/07/19 08:28:44;;;;;;;;;12.00;7.33;;;;;;;;5007804;28;45562;-86
2021/07/19 08:31:09;;;;;;;;;12.50;9.50;;;;;;;;5007296;28;45423;-85
2021/07/19 08:33:35;;;;;;;;;8.00;6.33;;;;;;;;5009313;28;45464;-87
2021/07/19 08:36:00;;;;;;;;;7.25;7.25;;;;;;;;5009179;28;45503;-84
2021/07/19 08:38:25;;;;;;;;;11.00;9.00;;;;;;;;5007729;28;46701;-88
2021/07/19 08:40:51;;;;;;;;;8.50;8.50;;;;;;;;5009547;28;45444;-85
2021/07/19 08:43:16;;;;;;;;;11.00;8.00;;;;;;;;5008179;28;45828;-85
2021/07/19 08:45:41;;;;;;;;;12.00;9.25;;;;;;;;4996476;28;45586;-84
2021/07/19 08:48:07;;;;;;;;;14.75;8.00;;;;;;;;5009379;28;46332;-85
2021/07/19 08:50:32;;;;;;;;;12.25;8.75;;;;;;;;5014335;28;45384;-85
2021/07/19 08:52:58;;;;;;;;;9.50;7.50;;;;;;;;5010884;28;45737;-87
2021/07/19 08:55:23;;;;;;;;;10.00;8.00;;;;;;;;5009601;28;45891;-86
2021/07/19 08:57:49;;;;;;;;;8.00;8.00;;;;;;;;5009483;28;48279;-84
2021/07/19 09:00:15;;;;;;;;;8.25;8.25;;;;;;;;5010251;28;45462;-84
2021/07/19 09:02:41;;;;;;;;;8.50;8.50;;;;;;;;5004736;28;46056;-83
2021/07/19 09:05:06;;;;;;;;;7.25;7.25;;;;;;;;5011530;28;45490;-84
2021/07/19 09:07:32;;;;;;;;;7.25;6.50;;;;;;;;5012973;28;46393;-86
2021/07/19 09:09:59;;;;;;;;;10.75;9.25;;;;;;;;5016959;28;45606;-84
2021/07/19 09:12:30;;;;;;;;;11.00;9.00;;;;;;;;5010039;28;45477;-85
2021/07/19 09:14:55;;;;;;;;;12.00;9.00;;;;;;;;5009339;28;45409;-84
2021/07/19 09:17:21;;;;;;;;;10.67;7.67;;;;;;;;5011434;28;46536;-85
2021/07/19 09:19:47;;;;;;;;;9.00;7.00;;;;;;;;5011408;28;45422;-84
2021/07/19 09:22:12;;;;;;;;;9.75;8.25;;;;;;;;5007613;28;45438;-85
2021/07/19 09:24:38;;;;;;;;;8.67;8.00;;;;;;;;5012159;28;45415;-85
2021/07/19 09:27:05;;;;;;;;;7.75;7.75;;;;;;;;5009410;28;45529;-85
2021/07/19 09:29:35;;;;;;;;;11.25;7.25;;;;;;;;5012391;28;45285;-85
2021/07/19 09:32:00;;;;;;;;;7.75;6.25;;;;;;;;5010437;28;45659;-84
2021/07/19 09:34:27;;;;;;;;;7.00;7.00;;;;;;;;5009122;28;45510;-85
2021/07/19 09:36:54;;;;;;;;;7.75;6.50;;;;;;;;5008828;28;45450;-85
2021/07/19 09:39:19;;;;;;;;;11.75;8.25;;;;;;;;5008763;28;45315;-85
2021/07/19 09:41:44;;;;;;;;;8.00;7.33;;;;;;;;5015408;28;45815;-85
2021/07/19 09:44:12;;;;;;;;;9.67;7.00;;;;;;;;5011631;28;45602;-84
2021/07/19 09:46:39;;;;;;;;;7.25;6.50;;;;;;;;4991173;28;46764;-85
2021/07/19 09:49:04;;;;;;;;;6.25;6.25;;;;;;;;5010864;28;45812;-85
2021/07/19 09:51:32;;;;;;;;;12.00;7.25;;;;;;;;4999578;28;46154;-84
2021/07/19 09:54:07;;;;;;;;;8.75;6.50;;;;;;;;5010780;28;45495;-85
2021/07/19 09:56:32;;;;;;;;;10.50;8.25;;;;;;;;5013636;28;46106;-85
2021/07/19 09:59:24;;;;;;;;;10.33;6.67;;;;;;;;4997616;28;45441;-85
2021/07/19 10:01:49;;;;;;;;;9.25;7.75;;;;;;;;5007747;28;45608;-85
2021/07/19 10:04:17;;;;;;;;;9.00;8.00;;;;;;;;5011826;28;45474;-85
2021/07/19 10:06:44;;;;;;;;;6.25;6.00;;;;;;;;5012774;28;46433;-85
2021/07/19 10:09:11;;;;;;;;;12.25;7.75;;;;;;;;5011253;28;45516;-85
2021/07/19 10:11:38;;;;;;;;;8.25;6.25;;;;;;;;4989128;28;45635;-85
2021/07/19 10:14:04;;;;;;;;;11.00;8.00;;;;;;;;5010978;28;45702;-85
2021/07/19 10:16:31;;;;;;;;;7.00;7.00;;;;;;;;5010901;28;46023;-84
2021/07/19 10:18:56;;;;;;;;;8.50;8.25;;;;;;;;5012373;28;46479;-84
2021/07/19 10:21:22;;;;;;;;;9.00;7.75;;;;;;;;5010100;28;45562;-83
2021/07/19 10:23:48;;;;;;;;;5.00;5.00;;;;;;;;4991213;28;45461;-84
2021/07/19 10:26:13;;;;;;;;;8.50;7.00;;;;;;;;4994984;28;47003;-84
2021/07/19 10:28:38;;;;;;;;;7.00;5.67;;;;;;;;5011137;28;45458;-84
2021/07/19 10:31:04;;;;;;;;;9.00;9.00;;;;;;;;5012960;28;45471;-84
2021/07/19 10:33:29;;;;;;;;;7.50;6.25;;;;;;;;5013005;28;45538;-84
2021/07/19 10:35:57;;;;;;;;;9.50;7.00;;;;;;;;5006539;28;45744;-85
2021/07/19 10:38:25;;;;;;;;;7.75;7.00;;;;;;;;5002851;28;45524;-76
2021/07/19 10:40:55;;;;;;;;;9.75;8.50;;;;;;;;5011272;28;45574;-79
2021/07/19 10:43:21;;;;;;;;;8.50;7.75;;;;;;;;5011079;28;45338;-80
2021/07/19 10:45:53;;;;;;;;;11.50;7.75;;;;;;;;5011868;28;45496;-80
2021/07/19 10:48:22;;;;;;;;;8.25;7.75;;;;;;;;5012039;28;45479;-79
2021/07/19 10:50:48;;;;;;;;;8.50;7.25;;;;;;;;5007482;28;45651;-80
2021/07/19 10:53:23;;;;;;;;;8.00;8.00;;;;;;;;5015135;28;45364;-80
2021/07/19 10:55:57;;;;;;;;;8.75;8.25;;;;;;;;5014410;28;46206;-80
2021/07/19 10:58:28;;;;;;;;;8.50;8.50;;;;;;;;5012478;28;45394;-81
2021/07/19 11:00:53;;;;;;;;;10.00;10.00;;;;;;;;5009814;28;45570;-80
2021/07/19 11:03:19;;;;;;;;;9.25;9.00;;;;;;;;5010888;28;45348;-80
2021/07/19 11:05:45;;;;;;;;;9.75;8.75;;;;;;;;5011486;28;45666;-80
2021/07/19 11:08:28;;;;;;;;;10.00;9.50;;;;;;;;5015273;28;45540;-80
2021/07/19 11:10:55;;;;;;;;;8.75;8.75;;;;;;;;5013576;28;45527;-80
2021/07/19 11:13:31;;;;;;;;;11.75;8.25;;;;;;;;4994966;28;45576;-80
2021/07/19 11:15:56;;;;;;;;;7.75;6.50;;;;;;;;5012419;28;46231;-80
2021/07/19 11:18:23;;;;;;;;;14.25;14.25;;;;;;;;5002424;28;45783;-80
2021/07/19 11:20:49;;;;;;;;;51.50;41.25;;;;;;;;5011952;28;45458;-80
2021/07/19 11:23:14;;;;;;;;;57.50;43.50;;;;;;;;5011958;28;45852;-80
2021/07/19 11:25:43;;;;;;;;;41.00;34.00;;;;;;;;5007145;28;45809;-80
2021/07/19 11:28:18;;;;;;;;;21.50;17.50;;;;;;;;5011919;28;45590;-80
2021/07/19 11:31:02;;;;;;;;;24.50;22.75;;;;;;;;5012451;28;45827;-80
2021/07/19 11:33:50;;;;;;;;;17.75;14.75;;;;;;;;5003289;28;45322;-80
2021/07/19 11:36:28;;;;;;;;;17.75;17.25;;;;;;;;5001449;28;45759;-80
2021/07/19 11:38:55;;;;;;;;;14.75;11.00;;;;;;;;5005500;28;45574;-80
2021/07/19 11:41:22;;;;;;;;;11.25;8.25;;;;;;;;5013675;28;45479;-81
2021/07/19 11:43:48;;;;;;;;;11.25;11.00;;;;;;;;5012560;28;45641;-81
2021/07/19 11:46:22;;;;;;;;;11.00;10.25;;;;;;;;4995036;28;47569;-80
2021/07/19 11:48:48;;;;;;;;;9.00;8.00;;;;;;;;4995436;28;45591;-82
2021/07/19 11:51:14;;;;;;;;;10.50;7.75;;;;;;;;5010571;28;45431;-81
2021/07/19 11:53:41;;;;;;;;;10.50;7.00;;;;;;;;5000754;28;45616;-81
2021/07/19 11:56:06;;;;;;;;;9.00;6.75;;;;;;;;5008818;28;46144;-83
2021/07/19 11:58:31;;;;;;;;;10.75;9.00;;;;;;;;5010063;28;45602;-82
2021/07/19 12:01:00;;;;;;;;;8.33;8.33;;;;;;;;5008414;28;45597;-81
2021/07/19 12:03:28;;;;;;;;;10.25;8.00;;;;;;;;4992345;28;45350;-83
2021/07/19 12:05:54;;;;;;;;;11.00;9.50;;;;;;;;5011094;28;46403;-82
2021/07/19 12:08:26;;;;;;;;;6.50;6.50;;;;;;;;5008498;28;45803;-81
2021/07/19 12:10:57;;;;;;;;;7.00;7.00;;;;;;;;5010078;28;45531;-82
2021/07/19 12:13:22;;;;;;;;;7.75;6.50;;;;;;;;5009263;28;45668;-81
2021/07/19 12:15:51;;;;;;;;;9.33;7.00;;;;;;;;5010529;28;46303;-82
2021/07/19 12:18:28;;;;;;;;;8.50;6.75;;;;;;;;5014943;28;45436;-82
2021/07/19 12:20:54;;;;;;;;;8.75;7.25;;;;;;;;5005486;28;45408;-89
2021/07/19 12:23:19;;;;;;;;;6.00;6.00;;;;;;;;5012877;28;45518;-84
2021/07/19 12:25:44;;;;;;;;;7.00;7.00;;;;;;;;5007423;28;46177;-82
2021/07/19 12:28:09;;;;;;;;;8.00;8.00;;;;;;;;5008089;28;45610;-83
2021/07/19 12:30:35;;;;;;;;;9.33;8.00;;;;;;;;4992876;28;45411;-82
2021/07/19 12:33:00;;;;;;;;;8.33;8.00;;;;;;;;5008419;28;57257;-83
2021/07/19 12:35:29;;;;;;;;;8.00;8.00;;;;;;;;5011138;28;45647;-81
2021/07/19 12:37:56;;;;;;;;;10.00;8.50;;;;;;;;4991886;28;45527;-83
2021/07/19 12:40:22;;;;;;;;;11.00;7.00;;;;;;;;5004962;28;45527;-82
2021/07/19 12:42:51;;;;;;;;;6.50;6.50;;;;;;;;5006626;28;45494;-82
2021/07/19 12:45:16;;;;;;;;;10.25;7.25;;;;;;;;5018635;28;46164;-81
2021/07/19 12:47:42;;;;;;;;;8.00;6.50;;;;;;;;5005357;28;45480;-81
2021/07/19 12:50:08;;;;;;;;;8.75;8.75;;;;;;;;4990959;28;45535;-82
2021/07/19 12:52:34;;;;;;;;;7.25;7.00;;;;;;;;4989712;28;46206;-82
2021/07/19 12:54:59;;;;;;;;;7.50;6.50;;;;;;;;5003978;28;45490;-83
2021/07/19 12:57:25;;;;;;;;;8.33;8.33;;;;;;;;5007317;28;45420;-82
2021/07/19 12:59:51;;;;;;;;;7.00;7.00;;;;;;;;5006624;28;45512;-82
2021/07/19 13:02:17;;;;;;;;;7.50;5.75;;;;;;;;5007087;28;45626;-83
2021/07/19 13:04:42;;;;;;;;;8.00;7.00;;;;;;;;5010266;28;46071;-82
2021/07/19 13:07:08;;;;;;;;;6.67;6.33;;;;;;;;5011136;28;45499;-81
2021/07/19 13:09:33;;;;;;;;;6.75;6.75;;;;;;;;4988698;28;45418;-81
2021/07/19 13:12:09;;;;;;;;;9.00;7.25;;;;;;;;5006689;28;45531;-81
2021/07/19 13:14:40;;;;;;;;;9.00;8.00;;;;;;;;5005816;28;45687;-81
2021/07/19 13:17:07;;;;;;;;;11.75;8.25;;;;;;;;5003051;28;46468;-81
2021/07/19 13:19:33;;;;;;;;;8.25;7.00;;;;;;;;5005897;28;45707;-82
2021/07/19 13:21:59;;;;;;;;;7.00;7.00;;;;;;;;5010062;28;50309;-81
2021/07/19 13:24:24;;;;;;;;;11.50;8.00;;;;;;;;5007789;28;46745;-81
2021/07/19 13:27:00;;;;;;;;;8.50;7.00;;;;;;;;5002962;28;45369;-81
2021/07/19 13:29:26;;;;;;;;;9.75;7.25;;;;;;;;5008978;28;45445;-83
2021/07/19 13:32:01;;;;;;;;;11.25;8.75;;;;;;;;5005925;28;45781;-82
2021/07/19 13:34:26;;;;;;;;;7.00;7.00;;;;;;;;5008482;28;46127;-81
2021/07/19 13:36:53;;;;;;;;;8.50;8.00;;;;;;;;5010944;28;45566;-81
2021/07/19 13:39:25;;;;;;;;;12.00;9.00;;;;;;;;5014506;28;45515;-86
2021/07/19 13:41:59;;;;;;;;;7.25;7.25;;;;;;;;5012381;28;45402;-80
2021/07/19 13:44:24;;;;;;;;;6.75;6.75;;;;;;;;5014240;28;45372;-85
2021/07/19 13:46:50;;;;;;;;;8.00;6.67;;;;;;;;5010103;28;45642;-81
2021/07/19 13:49:15;;;;;;;;;7.33;7.33;;;;;;;;5012427;28;45430;-82
2021/07/19 13:51:40;;;;;;;;;7.00;7.00;;;;;;;;5011556;28;45464;-82
2021/07/19 13:54:05;;;;;;;;;9.67;8.00;;;;;;;;5013368;28;45265;-82
2021/07/19 13:56:30;;;;;;;;;7.00;5.67;;;;;;;;4994605;28;45445;-82
2021/07/19 13:58:56;;;;;;;;;7.25;6.00;;;;;;;;5012855;28;45625;-82
2021/07/19 14:01:21;;;;;;;;;9.50;8.50;;;;;;;;5012022;28;45303;-81
2021/07/19 14:03:46;;;;;;;;;7.00;7.00;;;;;;;;5008688;28;45711;-82
2021/07/19 14:06:15;;;;;;;;;7.75;7.75;;;;;;;;5012181;28;52400;-82
2021/07/19 14:08:41;;;;;;;;;7.50;7.50;;;;;;;;5011902;28;45582;-82
2021/07/19 14:11:09;;;;;;;;;7.75;7.75;;;;;;;;5007510;28;45882;-82
2021/07/19 14:13:34;;;;;;;;;7.50;5.75;;;;;;;;5004651;28;46214;-82
2021/07/19 14:16:00;;;;;;;;;9.33;8.00;;;;;;;;5012307;28;45406;-82
2021/07/19 14:18:25;;;;;;;;;6.75;6.75;;;;;;;;5009000;28;45502;-82
2021/07/19 14:20:50;;;;;;;;;6.50;6.50;;;;;;;;5013675;28;45459;-82
2021/07/19 14:23:16;;;;;;;;;11.00;8.00;;;;;;;;5014109;28;46262;-82
2021/07/19 14:25:41;;;;;;;;;8.50;8.00;;;;;;;;5006814;28;45499;-83
2021/07/19 14:28:06;;;;;;;;;6.75;6.75;;;;;;;;5012266;28;45461;-82
2021/07/19 14:30:32;;;;;;;;;7.25;6.25;;;;;;;;5003579;28;45517;-82